Time;durP1;ratioP1;P1;durP2;ratioP2;P2;SDS_P1;SDS_P2;PMS_P1;PMS_P2;Temp;Humidity;BMP_temperature;BMP_pressure;BME280_temperature;BME280_humidity;BME280_pressure;Samples;Min_cycle;Max_cycle;Signal;HPM_P1;HPM_P2
2023/01/15 00:01:28;;;;;;;1.40;0.73;;;11.60;99.90;;;;;;5094694;28;20193;-69
2023/01/15 00:03:55;;;;;;;0.97;0.77;;;11.70;99.90;;;;;;5095031;28;20242;-69
2023/01/15 00:06:22;;;;;;;0.93;0.60;;;11.60;99.90;;;;;;5076732;28;20407;-69
2023/01/15 00:08:48;;;;;;;0.93;0.60;;;11.60;99.90;;;;;;5095161;28;20476;-69
2023/01/15 00:11:15;;;;;;;0.90;0.73;;;11.60;99.90;;;;;;5094796;28;20411;-69
2023/01/15 00:13:41;;;;;;;1.13;0.70;;;11.60;99.90;;;;;;5094897;28;20546;-69
2023/01/15 00:16:21;;;;;;;0.90;0.70;;;11.40;99.90;;;;;;5094564;28;20411;-70
2023/01/15 00:18:51;;;;;;;1.27;0.60;;;11.50;99.90;;;;;;5095008;28;20523;-69
2023/01/15 00:21:18;;;;;;;1.10;0.60;;;11.60;99.90;;;;;;5095387;28;20973;-69
2023/01/15 00:29:15;;;;;;;0.93;0.80;;;11.70;99.90;;;;;;5094704;28;20423;-69
2023/01/15 00:31:42;;;;;;;1.40;0.80;;;11.70;99.90;;;;;;5092546;28;20443;-69
2023/01/15 00:34:07;;;;;;;0.97;0.80;;;11.70;99.90;;;;;;5094253;28;20449;-69
2023/01/15 00:36:33;;;;;;;0.90;0.57;;;11.60;99.90;;;;;;5094475;28;20408;-69
2023/01/15 00:38:59;;;;;;;1.23;0.60;;;11.80;99.90;;;;;;5094328;28;20162;-69
2023/01/15 00:41:25;;;;;;;0.90;0.70;;;11.80;99.90;;;;;;5077051;28;20586;-69
2023/01/15 00:43:51;;;;;;;0.97;0.60;;;11.80;99.90;;;;;;5074485;28;20418;-69
2023/01/15 00:46:17;;;;;;;0.80;0.50;;;11.80;99.90;;;;;;5073725;28;20252;-69
2023/01/15 00:48:43;;;;;;;1.10;0.73;;;11.80;99.90;;;;;;5055843;28;20418;-69
2023/01/15 00:51:09;;;;;;;2.20;0.80;;;11.80;99.90;;;;;;5073670;28;20474;-69
2023/01/15 00:53:34;;;;;;;0.77;0.70;;;11.70;99.90;;;;;;5074147;28;20601;-69
2023/01/15 00:56:00;;;;;;;0.90;0.60;;;11.70;99.90;;;;;;5073653;28;20168;-69
2023/01/15 00:58:25;;;;;;;1.00;0.70;;;11.80;99.90;;;;;;5074111;28;20493;-69
2023/01/15 01:00:55;;;;;;;1.00;0.60;;;11.80;99.90;;;;;;5079558;28;20195;-70
2023/01/15 01:03:22;;;;;;;1.40;0.60;;;11.80;99.90;;;;;;5092774;28;20193;-69
2023/01/15 01:05:47;;;;;;;1.20;0.70;;;11.80;99.90;;;;;;5093772;28;20423;-69
2023/01/15 01:08:13;;;;;;;0.90;0.70;;;11.90;99.90;;;;;;5093928;28;20396;-69
2023/01/15 01:10:39;;;;;;;1.00;0.60;;;11.90;99.90;;;;;;5094088;28;20210;-69
2023/01/15 01:13:04;;;;;;;1.13;0.60;;;11.90;99.90;;;;;;5093934;28;20159;-69
2023/01/15 01:15:32;;;;;;;2.10;0.90;;;11.80;99.90;;;;;;5093509;28;20186;-69
2023/01/15 01:17:58;;;;;;;2.40;0.80;;;11.80;99.90;;;;;;5055388;28;20212;-69
2023/01/15 01:20:25;;;;;;;1.17;0.57;;;11.80;99.90;;;;;;5053239;28;20421;-68
2023/01/15 01:22:51;;;;;;;1.10;0.70;;;11.90;99.90;;;;;;5053706;28;20170;-68
2023/01/15 01:25:16;;;;;;;0.80;0.60;;;11.90;99.90;;;;;;5053736;28;20405;-68
2023/01/15 01:27:46;;;;;;;3.03;0.70;;;11.90;99.90;;;;;;5086857;28;20181;-69
2023/01/15 01:30:13;;;;;;;0.80;0.60;;;12.00;99.90;;;;;;5093405;28;20186;-69
2023/01/15 01:32:42;;;;;;;0.80;0.50;;;12.00;99.90;;;;;;5091619;28;20504;-69
2023/01/15 01:35:08;;;;;;;1.40;0.63;;;12.00;99.90;;;;;;5093893;28;20485;-69
2023/01/15 01:37:33;;;;;;;1.07;0.60;;;11.90;99.90;;;;;;5093682;28;20438;-69
2023/01/15 01:39:59;;;;;;;2.87;0.70;;;12.00;99.90;;;;;;5093304;28;20858;-69
2023/01/15 01:42:25;;;;;;;0.80;0.60;;;12.10;99.90;;;;;;5093735;28;20500;-69
2023/01/15 01:44:50;;;;;;;1.17;0.60;;;12.00;99.90;;;;;;5092158;28;20173;-69
2023/01/15 01:47:21;;;;;;;2.40;0.53;;;12.00;99.90;;;;;;5092884;28;20169;-69
2023/01/15 01:49:51;;;;;;;0.90;0.60;;;12.00;99.90;;;;;;5093581;28;20165;-69
2023/01/15 01:52:24;;;;;;;1.00;0.50;;;11.90;99.90;;;;;;5093637;28;20441;-69
2023/01/15 01:54:50;;;;;;;1.30;0.60;;;12.00;99.90;;;;;;5093505;28;20526;-69
2023/01/15 01:57:16;;;;;;;0.80;0.60;;;12.00;99.90;;;;;;5093486;28;20567;-69
2023/01/15 01:59:43;;;;;;;1.33;0.93;;;12.00;99.90;;;;;;5091532;28;20418;-69
2023/01/15 02:02:09;;;;;;;0.73;0.50;;;12.00;99.90;;;;;;5093093;28;20403;-69
2023/01/15 02:04:36;;;;;;;1.07;0.60;;;12.10;99.90;;;;;;5093661;28;20403;-69
2023/01/15 02:07:02;;;;;;;0.80;0.50;;;12.00;99.90;;;;;;5093846;28;20809;-69
2023/01/15 02:09:28;;;;;;;1.00;0.60;;;12.10;99.90;;;;;;5093590;28;20411;-69
2023/01/15 02:12:00;;;;;;;0.90;0.70;;;12.00;99.90;;;;;;5093121;28;20553;-69
2023/01/15 02:14:49;;;;;;;0.80;0.50;;;11.90;99.90;;;;;;5094397;28;20663;-69
2023/01/15 02:17:26;;;;;;;1.00;0.50;;;11.90;99.90;;;;;;5097327;28;20395;-68
2023/01/15 02:20:21;;;;;;;1.00;0.60;;;11.90;99.90;;;;;;5097611;28;20437;-69
2023/01/15 02:23:09;;;;;;;0.70;0.50;;;11.90;99.90;;;;;;5095420;28;20415;-68
2023/01/15 02:26:12;;;;;;;0.83;0.50;;;12.00;99.90;;;;;;5097753;28;20765;-69
2023/01/15 02:28:43;;;;;;;0.80;0.53;;;11.90;99.90;;;;;;5055452;28;20416;-68
2023/01/15 02:31:18;;;;;;;0.80;0.50;;;11.90;99.90;;;;;;5057543;28;20458;-68
2023/01/15 02:34:08;;;;;;;0.70;0.50;;;12.00;99.90;;;;;;5057322;28;20468;-68
2023/01/15 02:36:39;;;;;;;2.20;0.70;;;12.10;99.90;;;;;;5057583;28;20382;-69
2023/01/15 02:39:10;;;;;;;0.90;0.50;;;12.00;99.90;;;;;;5038973;28;20413;-68
2023/01/15 02:41:46;;;;;;;0.80;0.60;;;12.00;99.90;;;;;;5056605;28;20441;-69
2023/01/15 02:44:15;;;;;;;0.70;0.50;;;12.10;99.90;;;;;;5065592;28;20401;-68
2023/01/15 02:46:42;;;;;;;1.37;0.80;;;12.10;99.90;;;;;;5059330;28;20792;-68
2023/01/15 02:49:13;;;;;;;0.70;0.60;;;12.10;99.90;;;;;;5077160;28;20409;-69
2023/01/15 02:51:49;;;;;;;1.03;0.60;;;12.10;99.90;;;;;;5065344;28;20426;-69
2023/01/15 02:54:18;;;;;;;0.93;0.60;;;12.20;99.90;;;;;;5080151;28;20436;-69
2023/01/15 02:56:45;;;;;;;0.80;0.50;;;12.30;99.90;;;;;;5086402;28;20412;-69
2023/01/15 02:59:17;;;;;;;0.90;0.57;;;12.20;99.90;;;;;;5098267;28;20948;-69
2023/01/15 03:01:56;;;;;;;1.37;0.50;;;12.20;99.90;;;;;;5110368;28;20786;-69
2023/01/15 03:04:26;;;;;;;0.70;0.50;;;12.30;99.90;;;;;;5111398;28;20388;-69
2023/01/15 03:06:58;;;;;;;1.13;0.60;;;12.40;99.90;;;;;;5112496;28;20399;-68
2023/01/15 03:09:26;;;;;;;0.70;0.40;;;12.30;99.90;;;;;;5095036;28;20491;-70
2023/01/15 03:11:58;;;;;;;0.70;0.50;;;12.30;99.90;;;;;;5112571;28;20433;-69
2023/01/15 03:14:37;;;;;;;1.03;0.60;;;12.30;99.90;;;;;;5113678;28;20424;-69
2023/01/15 03:17:31;;;;;;;0.90;0.60;;;12.30;99.90;;;;;;5112490;28;20395;-68
2023/01/15 03:20:04;;;;;;;2.77;0.50;;;12.50;99.90;;;;;;5111928;28;20487;-68
2023/01/15 03:22:37;;;;;;;0.90;0.60;;;12.50;99.90;;;;;;5087761;28;20397;-68
2023/01/15 03:25:20;;;;;;;1.20;0.40;;;12.50;99.90;;;;;;5071550;28;20903;-68
2023/01/15 03:27:45;;;;;;;0.80;0.50;;;12.50;99.90;;;;;;5087494;28;20481;-68
2023/01/15 03:30:17;;;;;;;0.70;0.50;;;12.40;99.90;;;;;;5095965;28;20436;-67
2023/01/15 03:32:43;;;;;;;1.37;0.50;;;12.60;99.90;;;;;;5096200;28;20202;-69
2023/01/15 03:35:38;;;;;;;1.03;0.57;;;12.50;99.90;;;;;;5096074;28;20480;-69
2023/01/15 03:38:03;;;;;;;1.10;0.50;;;12.50;99.90;;;;;;5097732;28;20198;-70
2023/01/15 03:40:30;;;;;;;0.70;0.40;;;12.60;99.90;;;;;;5096449;28;20859;-70
2023/01/15 03:46:06;;;;;;;0.77;0.50;;;12.70;99.90;;;;;;5013748;28;20413;-70
2023/01/15 03:48:42;;;;;;;0.97;0.50;;;12.60;99.90;;;;;;5081748;28;20415;-70
2023/01/15 03:51:22;;;;;;;0.80;0.50;;;12.60;99.90;;;;;;5095599;28;20434;-69
2023/01/15 03:53:56;;;;;;;0.70;0.53;;;12.60;99.90;;;;;;5095476;28;20439;-69
2023/01/15 03:56:54;;;;;;;1.40;0.50;;;12.60;99.90;;;;;;5095506;28;20418;-70
2023/01/15 03:59:32;;;;;;;0.80;0.50;;;12.80;99.90;;;;;;5063091;28;20769;-70
2023/01/15 04:02:00;;;;;;;2.20;0.60;;;12.90;99.90;;;;;;5095422;28;20940;-69
2023/01/15 04:04:27;;;;;;;0.70;0.50;;;12.90;99.90;;;;;;5095572;28;20417;-70
2023/01/15 04:06:54;;;;;;;1.00;0.60;;;12.80;99.90;;;;;;5095556;28;20768;-69
2023/01/15 04:09:20;;;;;;;0.70;0.40;;;12.90;99.90;;;;;;5095717;28;20500;-70
2023/01/15 04:11:46;;;;;;;0.70;0.50;;;13.00;99.90;;;;;;5094582;28;20993;-70
2023/01/15 04:14:13;;;;;;;0.70;0.43;;;13.00;99.90;;;;;;5095460;28;20445;-69
2023/01/15 04:16:39;;;;;;;0.90;0.50;;;13.00;99.90;;;;;;5094973;28;20171;-69
2023/01/15 04:19:05;;;;;;;0.90;0.70;;;13.10;99.90;;;;;;5095018;28;20433;-69
2023/01/15 04:21:30;;;;;;;1.00;0.50;;;13.10;99.90;;;;;;5076886;28;20479;-69
2023/01/15 04:23:56;;;;;;;0.70;0.40;;;13.10;99.90;;;;;;5078037;28;20178;-70
2023/01/15 04:26:22;;;;;;;0.70;0.40;;;13.30;99.90;;;;;;5076618;28;20525;-70
2023/01/15 04:28:47;;;;;;;0.70;0.40;;;13.10;99.90;;;;;;5094524;28;20710;-70
2023/01/15 04:31:13;;;;;;;1.37;0.40;;;13.10;99.90;;;;;;5094806;28;20559;-70
2023/01/15 04:33:39;;;;;;;0.70;0.50;;;13.00;99.90;;;;;;5094576;28;20500;-70
2023/01/15 04:36:05;;;;;;;1.43;0.50;;;13.00;99.90;;;;;;5094890;28;20534;-70
2023/01/15 04:38:31;;;;;;;0.60;0.40;;;13.10;99.90;;;;;;5094494;28;20164;-70
2023/01/15 04:44:06;;;;;;;1.27;0.53;;;13.10;99.90;;;;;;5053527;28;20163;-70
2023/01/15 04:46:41;;;;;;;0.70;0.50;;;13.00;99.90;;;;;;5054261;28;20383;-70
2023/01/15 04:49:10;;;;;;;0.70;0.40;;;13.00;99.90;;;;;;5045894;28;20730;-71
2023/01/15 04:51:36;;;;;;;0.63;0.40;;;13.00;99.90;;;;;;5085660;28;20876;-70
2023/01/15 04:54:03;;;;;;;0.80;0.50;;;13.10;99.90;;;;;;5093533;28;20442;-70
2023/01/15 04:56:28;;;;;;;0.60;0.40;;;13.00;99.90;;;;;;5093461;28;20403;-71
2023/01/15 04:58:54;;;;;;;0.90;0.50;;;12.90;99.90;;;;;;5093901;28;20823;-71
2023/01/15 05:01:20;;;;;;;1.13;0.50;;;12.90;99.90;;;;;;5093361;28;20183;-70
2023/01/15 05:03:45;;;;;;;1.10;0.50;;;12.90;99.90;;;;;;5093537;28;20606;-70
2023/01/15 05:06:13;;;;;;;0.67;0.40;;;12.80;99.90;;;;;;5093526;28;20175;-71
2023/01/15 05:08:38;;;;;;;0.67;0.43;;;13.00;99.90;;;;;;5093054;28;20170;-70
2023/01/15 05:11:06;;;;;;;0.73;0.40;;;13.00;99.90;;;;;;5092254;28;20425;-70
2023/01/15 05:13:32;;;;;;;0.73;0.50;;;12.90;99.90;;;;;;5072509;28;20180;-71
2023/01/15 05:16:16;;;;;;;0.70;0.50;;;12.90;99.90;;;;;;5072610;28;20774;-70
2023/01/15 05:18:43;;;;;;;0.70;0.40;;;12.90;99.90;;;;;;5054153;28;20909;-71
2023/01/15 05:21:20;;;;;;;0.80;0.50;;;13.00;99.90;;;;;;5054144;28;20436;-70
2023/01/15 05:23:47;;;;;;;1.00;0.40;;;13.00;99.90;;;;;;5072983;28;20760;-72
2023/01/15 05:26:13;;;;;;;0.90;0.60;;;13.00;99.90;;;;;;5054327;28;20926;-70
2023/01/15 05:28:39;;;;;;;0.70;0.40;;;13.00;99.90;;;;;;5073306;28;20412;-71
2023/01/15 05:31:10;;;;;;;1.13;0.60;;;12.60;99.90;;;;;;5072373;28;20189;-70
2023/01/15 05:33:36;;;;;;;0.80;0.40;;;11.80;99.90;;;;;;5072521;28;20393;-71
2023/01/15 05:36:07;;;;;;;0.77;0.53;;;11.30;99.90;;;;;;5072637;28;20416;-71
2023/01/15 05:38:33;;;;;;;0.90;0.40;;;10.80;99.90;;;;;;5054512;28;20465;-71
2023/01/15 05:41:47;;;;;;;0.73;0.50;;;10.30;99.90;;;;;;5072076;28;20444;-71
2023/01/15 05:43:48;;;;;;;0.60;0.40;;;10.20;99.90;;;;;;5071807;28;20186;-71
2023/01/15 05:46:14;;;;;;;0.70;0.60;;;10.10;99.90;;;;;;5054179;28;20460;-71
2023/01/15 05:48:39;;;;;;;0.70;0.40;;;9.90;99.90;;;;;;5071899;28;20228;-71
2023/01/15 05:51:05;;;;;;;1.07;0.40;;;9.90;99.90;;;;;;5072375;28;20187;-71
2023/01/15 05:53:33;;;;;;;0.70;0.43;;;9.90;99.90;;;;;;5072394;28;20170;-71
2023/01/15 05:56:00;;;;;;;0.70;0.50;;;9.90;99.90;;;;;;5072555;28;20166;-71
2023/01/15 05:58:26;;;;;;;0.70;0.50;;;9.80;99.90;;;;;;5071947;28;20409;-71
2023/01/15 06:00:51;;;;;;;0.70;0.40;;;9.70;99.90;;;;;;5072120;28;20419;-71
2023/01/15 06:03:17;;;;;;;0.70;0.50;;;9.70;99.90;;;;;;5072172;28;20158;-71
2023/01/15 06:05:42;;;;;;;0.60;0.40;;;9.50;99.90;;;;;;5071989;28;20249;-71
2023/01/15 06:08:08;;;;;;;0.70;0.40;;;9.50;99.90;;;;;;5072089;28;20177;-71
2023/01/15 06:10:33;;;;;;;0.60;0.40;;;9.40;99.90;;;;;;5072360;28;20267;-71
2023/01/15 06:12:59;;;;;;;0.60;0.40;;;9.40;99.90;;;;;;5071878;28;20177;-71
2023/01/15 06:15:24;;;;;;;0.60;0.40;;;9.50;99.90;;;;;;5072780;28;20198;-70
2023/01/15 06:17:50;;;;;;;0.70;0.40;;;9.40;99.90;;;;;;5053975;28;20206;-71
2023/01/15 06:20:16;;;;;;;0.70;0.40;;;9.30;99.90;;;;;;5071986;28;20596;-70
2023/01/15 06:22:41;;;;;;;0.90;0.50;;;9.50;99.90;;;;;;5072186;28;20248;-70
2023/01/15 06:25:08;;;;;;;0.70;0.40;;;9.40;99.90;;;;;;5071984;28;20169;-70
2023/01/15 06:27:33;;;;;;;0.70;0.40;;;9.40;99.90;;;;;;5070398;28;20248;-70
2023/01/15 06:29:59;;;;;;;0.70;0.40;;;9.30;99.90;;;;;;5072082;28;20412;-70
2023/01/15 06:32:25;;;;;;;1.23;0.47;;;9.40;99.90;;;;;;5071727;28;20198;-70
2023/01/15 06:34:50;;;;;;;0.70;0.40;;;9.50;99.90;;;;;;5071600;28;20268;-70
2023/01/15 06:37:16;;;;;;;0.70;0.40;;;9.50;99.90;;;;;;5071695;28;20184;-71
2023/01/15 06:39:41;;;;;;;0.60;0.40;;;9.40;99.90;;;;;;5072405;28;20273;-72
2023/01/15 06:47:36;;;;;;;0.60;0.40;;;9.40;99.90;;;;;;5071289;28;20476;-71
2023/01/15 06:50:01;;;;;;;0.90;0.50;;;9.30;99.90;;;;;;5071728;28;20408;-71
2023/01/15 06:52:28;;;;;;;0.60;0.40;;;9.30;99.90;;;;;;5071327;28;20195;-69
2023/01/15 06:54:54;;;;;;;0.70;0.40;;;9.00;99.90;;;;;;5072274;28;20197;-71
2023/01/15 06:57:20;;;;;;;0.60;0.40;;;9.00;99.90;;;;;;5054363;28;20466;-70
2023/01/15 06:59:47;;;;;;;0.60;0.40;;;8.90;99.90;;;;;;5072113;28;20397;-71
2023/01/15 07:02:13;;;;;;;0.80;0.50;;;9.00;99.90;;;;;;5057123;28;20430;-70
2023/01/15 07:04:38;;;;;;;1.53;0.40;;;8.90;99.90;;;;;;5075420;28;20414;-71
2023/01/15 07:07:04;;;;;;;0.70;0.50;;;8.80;99.90;;;;;;5075631;28;20203;-71
2023/01/15 07:09:30;;;;;;;0.60;0.40;;;8.70;99.90;;;;;;5075319;28;20173;-70
2023/01/15 07:11:55;;;;;;;0.80;0.60;;;8.60;99.90;;;;;;5075934;28;20557;-71
2023/01/15 07:14:26;;;;;;;0.90;0.70;;;8.60;99.90;;;;;;5076486;28;20667;-71
2023/01/15 07:16:52;;;;;;;0.80;0.50;;;8.40;99.90;;;;;;5076220;28;20153;-71
2023/01/15 07:19:19;;;;;;;0.60;0.40;;;8.20;99.90;;;;;;5056755;28;20422;-70
2023/01/15 07:21:45;;;;;;;1.27;0.50;;;8.20;99.90;;;;;;5074243;28;20761;-70
2023/01/15 07:24:11;;;;;;;1.10;0.50;;;8.00;99.90;;;;;;5074719;28;20409;-71
2023/01/15 07:26:37;;;;;;;0.73;0.50;;;7.90;99.90;;;;;;5073882;28;20417;-70
2023/01/15 07:29:03;;;;;;;1.00;0.50;;;7.90;99.90;;;;;;5073894;28;20840;-71
2023/01/15 07:31:29;;;;;;;0.87;0.50;;;7.80;99.90;;;;;;5074638;28;20813;-70
2023/01/15 07:33:55;;;;;;;1.03;0.70;;;7.70;99.90;;;;;;5074869;28;20444;-71
2023/01/15 07:36:21;;;;;;;0.60;0.43;;;7.70;99.90;;;;;;5056479;28;20167;-71
2023/01/15 07:38:47;;;;;;;0.80;0.57;;;7.70;99.90;;;;;;5074493;28;20420;-70
2023/01/15 07:52:09;;;;;;;1.30;0.60;;;7.60;99.90;;;;;;5074416;28;20461;-70
2023/01/15 07:54:35;;;;;;;0.70;0.50;;;7.80;99.90;;;;;;5074346;28;20874;-71
2023/01/15 07:57:01;;;;;;;0.70;0.50;;;7.80;99.90;;;;;;5055866;28;20237;-71
2023/01/15 07:59:26;;;;;;;0.70;0.50;;;7.80;99.90;;;;;;5076583;28;20170;-70
2023/01/15 08:01:52;;;;;;;0.80;0.50;;;7.80;99.90;;;;;;5076318;28;20417;-70
2023/01/15 08:04:17;;;;;;;1.27;0.60;;;7.80;99.90;;;;;;5075311;28;20169;-68
2023/01/15 08:06:43;;;;;;;0.80;0.60;;;7.90;99.90;;;;;;5074793;28;20251;-70
2023/01/15 08:09:08;;;;;;;0.70;0.60;;;7.90;99.90;;;;;;5056473;28;20180;-71
2023/01/15 08:17:02;;;;;;;0.70;0.50;;;8.00;99.90;;;;;;5074777;28;20419;-71
2023/01/15 08:19:28;;;;;;;0.90;0.60;;;8.00;99.90;;;;;;5055675;28;20438;-70
2023/01/15 08:21:55;;;;;;;0.70;0.50;;;8.00;99.90;;;;;;5073593;28;20678;-70
2023/01/15 08:24:22;;;;;;;0.83;0.60;;;8.20;99.90;;;;;;5073840;28;20403;-70
2023/01/15 08:26:47;;;;;;;0.80;0.60;;;8.00;99.90;;;;;;5056245;28;20417;-70
2023/01/15 08:29:13;;;;;;;1.17;0.40;;;8.10;99.90;;;;;;5072148;28;20959;-70
2023/01/15 08:31:40;;;;;;;0.70;0.40;;;7.90;99.90;;;;;;5073609;28;20196;-70
2023/01/15 08:34:06;;;;;;;0.97;0.50;;;7.80;99.90;;;;;;5073616;28;20215;-70
2023/01/15 08:36:31;;;;;;;0.70;0.50;;;7.80;99.90;;;;;;5073441;28;20407;-70
2023/01/15 08:38:57;;;;;;;0.67;0.50;;;7.80;99.90;;;;;;5073721;28;20398;-70
2023/01/15 08:41:23;;;;;;;0.77;0.50;;;7.90;99.90;;;;;;5073179;28;20676;-70
2023/01/15 08:43:48;;;;;;;0.70;0.47;;;7.80;99.90;;;;;;5072977;28;20313;-70
2023/01/15 08:46:14;;;;;;;1.40;0.60;;;7.70;99.90;;;;;;5073336;28;20219;-70
2023/01/15 08:48:39;;;;;;;0.80;0.60;;;7.70;99.90;;;;;;5073058;28;20221;-69
2023/01/15 08:51:07;;;;;;;0.60;0.50;;;7.90;99.90;;;;;;5075532;28;20277;-71
2023/01/15 08:53:33;;;;;;;0.70;0.50;;;8.10;99.90;;;;;;5073066;28;20554;-70
2023/01/15 08:55:59;;;;;;;0.67;0.50;;;8.20;99.90;;;;;;5073121;28;20496;-70
2023/01/15 08:58:30;;;;;;;0.80;0.40;;;8.40;99.90;;;;;;5072459;28;20179;-70
2023/01/15 09:01:02;;;;;;;0.60;0.50;;;8.40;99.90;;;;;;5072794;28;20192;-70
2023/01/15 09:03:27;;;;;;;0.80;0.67;;;8.60;99.90;;;;;;5073304;28;20854;-71
2023/01/15 09:05:53;;;;;;;0.90;0.50;;;8.40;99.90;;;;;;5072934;28;20407;-71
2023/01/15 09:08:18;;;;;;;0.70;0.40;;;8.50;99.90;;;;;;5054685;28;20319;-71
2023/01/15 09:10:44;;;;;;;0.70;0.50;;;8.50;99.90;;;;;;5072719;28;20201;-71
2023/01/15 09:13:10;;;;;;;0.60;0.40;;;8.60;99.90;;;;;;5073461;28;20166;-71
2023/01/15 09:15:35;;;;;;;0.70;0.50;;;8.90;99.90;;;;;;5055362;28;20199;-71
2023/01/15 09:18:01;;;;;;;0.70;0.43;;;8.90;99.90;;;;;;5073040;28;20278;-71
2023/01/15 09:20:26;;;;;;;0.60;0.40;;;8.90;99.90;;;;;;5072886;28;20174;-70
2023/01/15 09:22:52;;;;;;;0.60;0.47;;;8.80;99.90;;;;;;5073290;28;20173;-71
2023/01/15 09:25:18;;;;;;;0.70;0.40;;;8.80;99.90;;;;;;5071498;28;20169;-71
2023/01/15 09:27:45;;;;;;;1.10;0.53;;;8.80;99.90;;;;;;5071873;28;20166;-69
2023/01/15 09:30:21;;;;;;;0.70;0.50;;;8.80;99.90;;;;;;5052658;28;20416;-70
2023/01/15 09:32:47;;;;;;;0.87;0.53;;;8.80;99.90;;;;;;5052781;28;20467;-71
2023/01/15 09:35:13;;;;;;;0.70;0.60;;;8.90;99.90;;;;;;5052460;28;20467;-69
2023/01/15 09:37:39;;;;;;;1.00;0.57;;;8.90;99.90;;;;;;5052825;28;20413;-70
2023/01/15 09:40:08;;;;;;;1.27;0.70;;;9.00;99.90;;;;;;5052439;28;20405;-70
2023/01/15 09:42:50;;;;;;;1.00;0.60;;;9.00;99.90;;;;;;5052022;28;20616;-69
2023/01/15 09:45:24;;;;;;;1.23;0.80;;;8.80;99.90;;;;;;5052106;28;20461;-70
2023/01/15 09:48:10;;;;;;;1.07;0.50;;;8.70;99.90;;;;;;5035208;28;20397;-71
2023/01/15 09:51:14;;;;;;;1.03;0.70;;;9.00;99.90;;;;;;5052511;28;20456;-70
2023/01/15 09:53:46;;;;;;;1.20;0.80;;;8.70;99.90;;;;;;5053350;28;20380;-70
2023/01/15 09:56:26;;;;;;;0.90;0.60;;;8.90;99.90;;;;;;5053104;28;20404;-70
2023/01/15 09:58:54;;;;;;;0.80;0.60;;;8.90;99.90;;;;;;5060787;28;20414;-70
2023/01/15 10:01:25;;;;;;;1.10;0.60;;;8.80;99.90;;;;;;5072342;28;20434;-71
2023/01/15 10:04:16;;;;;;;1.03;0.60;;;8.60;99.90;;;;;;5073045;28;20943;-70
2023/01/15 10:06:47;;;;;;;0.90;0.70;;;8.50;99.90;;;;;;5072664;28;20464;-70
2023/01/15 10:09:30;;;;;;;0.80;0.60;;;8.20;99.90;;;;;;5072365;28;20396;-70
2023/01/15 10:14:54;;;;;;;0.80;0.60;;;8.00;99.90;;;;;;5072085;28;20461;-71
2023/01/15 10:17:40;;;;;;;0.90;0.67;;;8.00;99.90;;;;;;5072776;28;20397;-72
2023/01/15 10:20:27;;;;;;;0.73;0.50;;;8.00;99.90;;;;;;5054520;28;20498;-70
2023/01/15 10:23:12;;;;;;;0.90;0.60;;;7.90;99.90;;;;;;5071628;28;20547;-72
2023/01/15 10:26:21;;;;;;;0.80;0.60;;;7.90;99.90;;;;;;5071818;28;20386;-72
2023/01/15 10:29:30;;;;;;;1.43;0.70;;;7.70;99.90;;;;;;5070049;28;20508;-72
2023/01/15 10:32:06;;;;;;;0.70;0.50;;;7.80;99.90;;;;;;5071937;28;20437;-70
2023/01/15 10:35:00;;;;;;;1.20;0.57;;;7.90;99.90;;;;;;5072601;28;20434;-71
2023/01/15 10:37:58;;;;;;;1.10;0.80;;;7.90;99.90;;;;;;5076322;28;20415;-70
2023/01/15 10:40:50;;;;;;;0.70;0.60;;;8.10;99.90;;;;;;5057386;28;20423;-70
2023/01/15 10:43:45;;;;;;;0.90;0.70;;;8.20;99.90;;;;;;5075684;28;20406;-70
2023/01/15 10:46:22;;;;;;;0.80;0.60;;;8.10;99.90;;;;;;5076217;28;20391;-71
2023/01/15 10:48:53;;;;;;;1.17;0.60;;;8.30;99.90;;;;;;5076463;28;20395;-70
2023/01/15 10:51:37;;;;;;;0.70;0.40;;;8.20;99.90;;;;;;5078303;28;20448;-70
2023/01/15 10:54:25;;;;;;;0.97;0.60;;;7.90;99.90;;;;;;5075787;28;20791;-70
2023/01/15 10:57:00;;;;;;;1.27;0.60;;;7.90;99.90;;;;;;5075756;28;20407;-70
2023/01/15 10:59:47;;;;;;;3.63;0.60;;;7.80;99.90;;;;;;5074713;28;20414;-70
2023/01/15 11:02:38;;;;;;;0.80;0.60;;;7.60;99.90;;;;;;5075320;28;20429;-70
2023/01/15 11:05:04;;;;;;;1.00;0.70;;;7.10;99.90;;;;;;5057763;28;20434;-71
2023/01/15 11:07:37;;;;;;;0.80;0.63;;;6.80;99.90;;;;;;5057721;28;20416;-71
2023/01/15 11:10:09;;;;;;;0.80;0.60;;;6.60;99.90;;;;;;5075869;28;20390;-71
2023/01/15 11:21:11;;;;;;;1.00;0.90;;;6.70;99.90;;;;;;5075816;28;20413;-70
2023/01/15 11:23:37;;;;;;;1.20;0.73;;;6.60;99.90;;;;;;5057430;28;20408;-70
2023/01/15 11:26:03;;;;;;;1.13;0.80;;;6.70;99.90;;;;;;5075652;28;20403;-71
2023/01/15 11:28:30;;;;;;;0.80;0.60;;;6.40;99.90;;;;;;5074545;28;20183;-70
2023/01/15 11:30:56;;;;;;;1.17;0.60;;;6.40;99.90;;;;;;5075026;28;20477;-71
2023/01/15 11:33:25;;;;;;;1.00;0.60;;;6.40;99.90;;;;;;5074977;28;20396;-71
2023/01/15 11:35:57;;;;;;;0.70;0.50;;;6.50;99.90;;;;;;5057466;28;20280;-71
2023/01/15 11:38:23;;;;;;;0.70;0.50;;;6.50;99.90;;;;;;5075834;28;20393;-69
2023/01/15 11:41:00;;;;;;;0.90;0.60;;;6.40;99.90;;;;;;5075320;28;20438;-71
2023/01/15 11:52:04;;;;;;;1.27;0.80;;;6.30;99.90;;;;;;5075756;28;20416;-71
2023/01/15 11:54:34;;;;;;;1.20;0.83;;;6.30;99.90;;;;;;5076359;28;20436;-72
2023/01/15 11:57:01;;;;;;;1.17;0.70;;;6.30;99.90;;;;;;5057838;28;20785;-72
2023/01/15 11:59:26;;;;;;;0.80;0.70;;;6.30;99.90;;;;;;5074627;28;20431;-72
2023/01/15 12:01:58;;;;;;;1.30;0.60;;;6.30;99.90;;;;;;5074084;28;20834;-71
2023/01/15 12:04:40;;;;;;;0.70;0.60;;;6.30;99.90;;;;;;5056103;28;20166;-72
2023/01/15 12:07:12;;;;;;;0.97;0.70;;;6.30;99.90;;;;;;5075036;28;20399;-71
2023/01/15 12:09:55;;;;;;;1.00;0.70;;;6.30;99.90;;;;;;5075093;28;20404;-69
2023/01/15 12:12:38;;;;;;;0.90;0.80;;;6.30;99.90;;;;;;5074549;28;20935;-71
2023/01/15 12:15:22;;;;;;;4.20;1.10;;;6.40;99.90;;;;;;5074095;28;20427;-71
2023/01/15 12:17:51;;;;;;;0.77;0.60;;;6.40;99.90;;;;;;5074609;28;20397;-71
2023/01/15 12:20:23;;;;;;;0.80;0.60;;;6.40;99.90;;;;;;5074615;28;20397;-71
2023/01/15 12:23:16;;;;;;;0.80;0.50;;;6.30;99.90;;;;;;5074560;28;20386;-71
2023/01/15 12:25:49;;;;;;;0.90;0.83;;;6.30;99.90;;;;;;5074379;28;20385;-71
2023/01/15 12:28:23;;;;;;;0.90;0.70;;;6.30;99.90;;;;;;5073031;28;20396;-71
2023/01/15 12:31:07;;;;;;;0.97;0.67;;;6.20;99.90;;;;;;5073570;28;20418;-70
2023/01/15 12:33:49;;;;;;;1.33;0.73;;;6.20;99.90;;;;;;5073845;28;20390;-71
2023/01/15 12:36:24;;;;;;;0.90;0.60;;;6.30;99.90;;;;;;5056698;28;20408;-71
2023/01/15 12:39:02;;;;;;;1.37;0.60;;;6.30;99.90;;;;;;5074012;28;20441;-71
2023/01/15 12:47:15;;;;;;;0.80;0.70;;;6.40;99.90;;;;;;5073510;28;20771;-71
2023/01/15 12:49:50;;;;;;;0.87;0.60;;;6.40;99.90;;;;;;5073660;28;20435;-71
2023/01/15 12:52:23;;;;;;;0.80;0.60;;;6.40;99.90;;;;;;5073319;28;20419;-71
2023/01/15 12:55:06;;;;;;;1.10;0.70;;;6.50;99.90;;;;;;5073351;28;20435;-71
2023/01/15 12:57:42;;;;;;;0.90;0.50;;;6.60;99.90;;;;;;5075648;28;20398;-71
2023/01/15 13:00:17;;;;;;;1.57;0.60;;;6.60;99.90;;;;;;5072570;28;20662;-71
2023/01/15 13:02:52;;;;;;;2.03;0.80;;;6.50;99.90;;;;;;5055102;28;20415;-71
2023/01/15 13:05:28;;;;;;;1.10;0.70;;;6.60;99.90;;;;;;5073096;28;20389;-71
2023/01/15 13:08:18;;;;;;;0.93;0.60;;;6.70;99.90;;;;;;5073094;28;20442;-71
2023/01/15 13:10:47;;;;;;;0.87;0.63;;;6.80;99.90;;;;;;5072549;28;20432;-70
2023/01/15 13:13:15;;;;;;;1.00;0.70;;;6.80;99.90;;;;;;5072479;28;20921;-70
2023/01/15 13:16:00;;;;;;;1.10;0.67;;;6.80;99.90;;;;;;5072452;28;20524;-70
2023/01/15 13:18:36;;;;;;;0.80;0.70;;;6.80;99.90;;;;;;5073318;28;20462;-71
2023/01/15 13:21:12;;;;;;;0.80;0.60;;;6.90;99.90;;;;;;5072588;28;20424;-71
2023/01/15 13:23:56;;;;;;;2.40;0.80;;;7.00;99.90;;;;;;5072794;28;20898;-70
2023/01/15 13:26:55;;;;;;;1.53;0.70;;;7.00;99.90;;;;;;5072535;28;20384;-70
2023/01/15 13:29:45;;;;;;;1.20;0.80;;;7.10;99.90;;;;;;5071167;28;20758;-71
2023/01/15 13:32:15;;;;;;;1.40;0.90;;;7.10;99.90;;;;;;5072419;28;20448;-72
2023/01/15 13:34:49;;;;;;;0.87;0.60;;;7.20;99.90;;;;;;5072091;28;20822;-72
2023/01/15 13:37:24;;;;;;;1.20;0.77;;;7.00;99.90;;;;;;5071482;28;20404;-71
2023/01/15 13:39:54;;;;;;;1.27;0.80;;;7.20;99.90;;;;;;5072066;28;20725;-74
2023/01/15 13:42:31;;;;;;;1.00;0.70;;;7.30;99.90;;;;;;5073072;28;20465;-71
2023/01/15 13:45:17;;;;;;;1.80;1.03;;;7.30;99.90;;;;;;5072460;28;20397;-72
2023/01/15 13:47:47;;;;;;;1.03;0.77;;;7.20;99.90;;;;;;5071978;28;20415;-72
2023/01/15 13:50:28;;;;;;;1.23;0.80;;;7.10;99.90;;;;;;5072771;28;20388;-72
2023/01/15 13:53:04;;;;;;;1.07;0.70;;;7.00;99.90;;;;;;5072155;28;20436;-70
2023/01/15 13:55:36;;;;;;;1.47;1.03;;;6.80;99.90;;;;;;5073126;28;20483;-72
2023/01/15 13:58:02;;;;;;;2.20;0.87;;;7.00;99.90;;;;;;5074045;28;20405;-71
2023/01/15 14:00:37;;;;;;;3.67;1.30;;;7.10;99.90;;;;;;5055500;28;20532;-72
2023/01/15 14:03:24;;;;;;;1.20;0.80;;;7.20;99.90;;;;;;5054928;28;20223;-70
2023/01/15 14:05:55;;;;;;;1.33;0.97;;;7.00;99.90;;;;;;5072958;28;20480;-71
2023/01/15 14:08:26;;;;;;;3.37;1.03;;;7.00;99.90;;;;;;5054773;28;20421;-71
2023/01/15 14:10:54;;;;;;;1.23;0.80;;;6.90;99.90;;;;;;5072217;28;20451;-69
2023/01/15 14:13:31;;;;;;;1.20;1.10;;;6.90;99.90;;;;;;5072210;28;20412;-70